createdAt,value
2019-02-18T00:01:32.862Z,20.70
2019-02-18T00:04:03.113Z,20.60
2019-02-18T00:06:33.240Z,20.87
2019-02-18T00:09:04.940Z,19.97
2019-02-18T00:11:35.144Z,21.30
2019-02-18T00:14:05.373Z,21.57
2019-02-18T00:16:35.542Z,20.07
2019-02-18T00:19:06.941Z,21.40
2019-02-18T00:21:37.321Z,21.37
2019-02-18T00:24:07.527Z,19.13
2019-02-18T00:26:38.113Z,21.33
2019-02-18T00:29:08.572Z,19.80
2019-02-18T00:31:38.861Z,19.80
2019-02-18T00:34:09.434Z,20.10
2019-02-18T00:36:39.849Z,20.83
2019-02-18T00:39:10.364Z,20.10
2019-02-18T00:41:40.746Z,21.23
2019-02-18T00:44:11.290Z,19.97
2019-02-18T00:46:41.731Z,21.43
2019-02-18T00:49:12.422Z,19.87
2019-02-18T00:51:42.947Z,20.40
2019-02-18T00:54:13.271Z,21.10
2019-02-18T00:56:43.618Z,20.73
2019-02-18T00:59:13.883Z,20.27
2019-02-18T01:01:44.221Z,21.03
2019-02-18T01:04:14.515Z,22.15
2019-02-18T01:06:45.079Z,20.97
2019-02-18T01:09:15.392Z,20.77
2019-02-18T01:11:45.848Z,19.47
2019-02-18T01:14:16.273Z,21.02
2019-02-18T01:16:46.759Z,19.77
2019-02-18T01:19:17.031Z,20.77
2019-02-18T01:21:47.325Z,21.73
2019-02-18T01:24:17.895Z,19.03
2019-02-18T01:26:48.441Z,20.13
2019-02-18T01:29:18.673Z,20.23
2019-02-18T01:31:49.062Z,20.97
2019-02-18T01:34:19.312Z,21.02
2019-02-18T01:36:49.811Z,20.37
2019-02-18T01:39:20.270Z,20.47
2019-02-18T01:41:50.640Z,20.77
2019-02-18T01:44:20.809Z,19.90
2019-02-18T01:46:51.083Z,19.70
2019-02-18T01:49:21.449Z,19.65
2019-02-18T01:51:51.668Z,20.37
2019-02-18T01:54:22.272Z,20.33
2019-02-18T01:56:52.651Z,21.13
2019-02-18T01:59:23.186Z,19.73
2019-02-18T02:01:53.506Z,19.83
2019-02-18T02:04:23.722Z,19.73
2019-02-18T02:06:54.117Z,21.20
2019-02-18T02:09:24.559Z,20.75
2019-02-18T02:11:54.981Z,21.83
2019-02-18T02:14:25.184Z,20.23
2019-02-18T02:16:55.760Z,20.93
2019-02-18T02:19:26.060Z,20.73
2019-02-18T02:21:56.638Z,20.63
2019-02-18T02:24:26.857Z,20.50
2019-02-18T02:26:57.118Z,19.23
2019-02-18T02:29:27.439Z,19.90
2019-02-18T02:31:57.827Z,20.27
2019-02-18T02:34:28.106Z,19.70
2019-02-18T02:36:58.620Z,19.47
2019-02-18T02:39:29.142Z,20.60
2019-02-18T02:41:59.667Z,20.43
2019-02-18T02:44:30.103Z,20.47
2019-02-18T02:47:00.536Z,21.83
2019-02-18T02:49:30.896Z,21.40
2019-02-18T02:52:01.345Z,21.80
2019-02-18T02:54:31.702Z,21.83
2019-02-18T02:57:01.879Z,21.70
2019-02-18T02:59:32.467Z,22.13
2019-02-18T03:02:02.796Z,21.97
2019-02-18T03:04:32.939Z,20.97
2019-02-18T03:07:03.084Z,21.73
2019-02-18T03:09:33.201Z,21.63
2019-02-18T03:12:03.412Z,22.23
2019-02-18T03:14:33.773Z,22.30
2019-02-18T03:17:03.977Z,20.97
2019-02-18T03:19:34.250Z,21.93
2019-02-18T03:22:04.424Z,22.27
2019-02-18T03:24:34.593Z,21.23
2019-02-18T03:27:04.794Z,21.30
2019-02-18T03:30:40.376Z,22.40
2019-02-18T03:33:11.352Z,22.83
2019-02-18T03:35:48.880Z,23.00
2019-02-18T03:38:19.123Z,21.37
2019-02-18T03:40:49.280Z,21.47
2019-02-18T03:43:19.492Z,22.53
2019-02-18T03:45:49.699Z,22.40
2019-02-18T03:48:19.917Z,22.10
2019-02-18T03:50:50.177Z,22.10
2019-02-18T03:53:20.312Z,22.13
2019-02-18T03:55:50.561Z,22.60
2019-02-18T03:58:20.890Z,21.87
2019-02-18T04:00:51.154Z,22.73
2019-02-18T04:03:21.324Z,23.17
2019-02-18T04:05:51.463Z,21.77
2019-02-18T04:08:21.550Z,19.05
2019-02-18T04:10:51.731Z,21.67
2019-02-18T04:13:21.982Z,21.03
2019-02-18T04:15:52.309Z,22.37
2019-02-18T04:18:22.502Z,21.50
2019-02-18T04:20:52.748Z,19.83
2019-02-18T04:23:22.905Z,21.30
2019-02-18T04:25:53.023Z,21.90
2019-02-18T04:28:23.171Z,21.07
2019-02-18T04:30:53.386Z,20.77
2019-02-18T04:33:23.550Z,20.20
2019-02-18T04:35:53.776Z,20.97
2019-02-18T04:38:23.848Z,19.70
2019-02-18T04:40:54.013Z,20.23
2019-02-18T04:43:24.123Z,22.10
2019-02-18T04:45:54.190Z,20.30
2019-02-18T04:48:24.422Z,20.45
2019-02-18T04:50:54.737Z,20.07
2019-02-18T04:53:24.877Z,20.75
2019-02-18T04:55:54.975Z,21.73
2019-02-18T04:58:25.095Z,21.67
2019-02-18T05:00:55.740Z,21.95
2019-02-18T05:03:25.790Z,21.33
2019-02-18T05:05:57.852Z,20.57
2019-02-18T05:08:28.377Z,20.23
2019-02-18T05:10:58.894Z,21.27
2019-02-18T05:13:29.549Z,19.93
2019-02-18T05:18:29.327Z,20.03
2019-02-18T05:20:59.765Z,20.43
2019-02-18T05:23:30.678Z,19.90
2019-02-18T05:26:01.321Z,19.40
2019-02-18T05:28:32.100Z,21.10
2019-02-18T05:31:02.681Z,20.60
2019-02-18T05:33:33.231Z,19.60
2019-02-18T05:36:03.743Z,20.33
2019-02-18T05:38:34.381Z,19.80
2019-02-18T05:41:04.885Z,19.77
2019-02-18T05:43:35.255Z,20.77
2019-02-18T05:46:08.559Z,21.33
2019-02-18T05:48:38.411Z,20.17
2019-02-18T05:51:08.974Z,19.93
2019-02-18T05:53:39.692Z,19.33
2019-02-18T05:56:10.357Z,20.60
2019-02-18T05:58:41.835Z,20.90
2019-02-18T06:01:12.331Z,21.42
2019-02-18T06:03:42.714Z,20.50
2019-02-18T06:06:13.194Z,20.85
2019-02-18T06:08:43.700Z,20.90
2019-02-18T06:11:14.216Z,22.05
2019-02-18T06:13:44.586Z,21.07
2019-02-18T06:16:15.926Z,20.47
2019-02-18T06:18:46.566Z,21.80
2019-02-18T06:21:19.032Z,21.90
2019-02-18T06:23:49.529Z,21.57
2019-02-18T06:26:19.849Z,21.25
2019-02-18T06:28:50.393Z,21.13
2019-02-18T06:31:20.943Z,20.17
2019-02-18T06:33:51.307Z,21.67
2019-02-18T06:36:23.956Z,21.65
2019-02-18T06:38:54.439Z,21.67
2019-02-18T06:41:24.946Z,22.70
2019-02-18T06:43:55.502Z,21.83
2019-02-18T06:46:31.869Z,22.70
2019-02-18T06:49:08.668Z,23.00
2019-02-18T06:51:39.150Z,23.70
2019-02-18T06:54:09.696Z,24.23
2019-02-18T06:57:04.389Z,25.30
2019-02-18T06:59:38.303Z,24.20
2019-02-18T07:02:30.581Z,23.10
2019-02-18T07:05:35.059Z,23.73
2019-02-18T07:10:59.203Z,23.13
2019-02-18T07:13:29.715Z,21.73
2019-02-18T07:16:00.330Z,22.20
2019-02-18T07:18:30.873Z,20.50
2019-02-18T07:21:01.404Z,21.33
2019-02-18T07:23:31.886Z,22.33
2019-02-18T07:26:02.564Z,20.93
2019-02-18T07:28:33.160Z,20.17
2019-02-18T07:31:03.490Z,20.63
2019-02-18T07:33:33.593Z,19.63
2019-02-18T07:36:03.891Z,21.80
2019-02-18T07:38:34.227Z,19.67
2019-02-18T07:41:04.443Z,22.00
2019-02-18T07:43:34.746Z,20.87
2019-02-18T07:46:05.078Z,21.67
2019-02-18T07:48:36.788Z,21.63
2019-02-18T07:51:07.195Z,22.13
2019-02-18T07:53:37.379Z,23.53
2019-02-18T07:56:07.792Z,25.07
2019-02-18T07:58:37.916Z,24.83
2019-02-18T08:01:08.336Z,24.53
2019-02-18T08:03:38.508Z,25.73
2019-02-18T08:06:08.769Z,24.47
2019-02-18T08:08:38.953Z,23.83
2019-02-18T08:11:12.260Z,25.53
2019-02-18T08:13:42.733Z,22.30
2019-02-18T08:16:12.999Z,22.98
2019-02-18T08:18:43.253Z,22.67
2019-02-18T08:21:13.510Z,20.92
2019-02-18T08:23:45.519Z,20.47
2019-02-18T08:26:15.821Z,19.53
2019-02-18T08:28:46.063Z,20.13
2019-02-18T08:31:55.848Z,20.63
2019-02-18T08:34:26.082Z,20.33
2019-02-18T08:36:56.355Z,20.70
2019-02-18T08:39:27.070Z,20.27
2019-02-18T08:41:58.042Z,20.80
2019-02-18T08:44:28.433Z,21.00
2019-02-18T08:46:58.621Z,20.90
2019-02-18T08:49:29.045Z,19.40
2019-02-18T08:51:59.272Z,20.03
2019-02-18T08:54:29.471Z,19.53
2019-02-18T08:57:02.241Z,20.07
2019-02-18T08:59:32.617Z,20.70
2019-02-18T09:02:03.096Z,19.10
2019-02-18T09:04:33.528Z,18.50
2019-02-18T09:07:03.950Z,19.97
2019-02-18T09:09:34.434Z,19.47
2019-02-18T09:12:04.780Z,17.67
2019-02-18T09:14:35.300Z,18.97
2019-02-18T09:17:06.866Z,19.90
2019-02-18T09:19:37.021Z,19.00
2019-02-18T09:22:25.806Z,21.30
2019-02-18T09:25:11.298Z,19.87
2019-02-18T09:27:41.692Z,19.13
2019-02-18T09:30:11.985Z,19.98
2019-02-18T09:32:43.716Z,19.83
2019-02-18T09:35:16.016Z,20.50
2019-02-18T09:37:46.214Z,20.33
2019-02-18T09:40:16.706Z,20.27
2019-02-18T09:42:46.930Z,20.43
2019-02-18T09:45:17.356Z,21.27
2019-02-18T09:47:47.619Z,19.73
2019-02-18T09:50:21.392Z,19.87
2019-02-18T09:52:51.677Z,19.13
2019-02-18T09:55:22.113Z,19.20
2019-02-18T09:57:52.431Z,20.27
2019-02-18T10:00:22.705Z,18.82
2019-02-18T10:02:53.040Z,19.30
2019-02-18T10:05:23.386Z,17.87
2019-02-18T10:07:54.829Z,18.67
2019-02-18T10:10:25.475Z,18.37
2019-02-18T10:12:59.741Z,19.00
2019-02-18T10:15:30.260Z,18.10
2019-02-18T10:18:00.678Z,18.00
2019-02-18T10:20:31.057Z,17.10
2019-02-18T10:23:21.718Z,17.00
2019-02-18T10:25:58.859Z,18.60
2019-02-18T10:28:29.532Z,18.13
2019-02-18T10:31:02.551Z,18.23
2019-02-18T10:33:33.622Z,17.70
2019-02-18T10:36:03.957Z,18.77
2019-02-18T10:38:36.131Z,16.60
2019-02-18T10:41:10.271Z,16.90
2019-02-18T10:43:45.677Z,16.53
2019-02-18T10:46:21.504Z,16.65
2019-02-18T10:49:19.328Z,16.50
2019-02-18T10:51:47.782Z,15.60
2019-02-18T10:54:17.963Z,15.75
2019-02-18T10:57:00.000Z,15.27
2019-02-18T10:59:30.306Z,15.47
2019-02-18T11:02:01.815Z,15.27
2019-02-18T11:04:36.161Z,14.63
2019-02-18T11:07:08.150Z,14.45
2019-02-18T11:09:38.502Z,14.10
2019-02-18T11:12:08.801Z,14.63
2019-02-18T11:14:45.756Z,15.77
2019-02-18T11:17:17.910Z,14.50
2019-02-18T11:19:48.137Z,15.43
2019-02-18T11:22:19.108Z,14.80
2019-02-18T11:24:49.430Z,15.73
2019-02-18T11:27:19.614Z,15.30
2019-02-18T11:29:49.858Z,14.30
2019-02-18T11:32:20.081Z,14.33
2019-02-18T11:34:50.514Z,13.90
2019-02-18T11:37:20.683Z,14.77
2019-02-18T11:39:50.847Z,14.90
2019-02-18T11:42:21.060Z,15.45
2019-02-18T11:44:51.220Z,14.80
2019-02-18T11:47:21.484Z,15.20
2019-02-18T11:49:51.738Z,15.43
2019-02-18T11:52:22.023Z,14.53
2019-02-18T11:54:52.179Z,14.03
2019-02-18T11:57:22.459Z,14.77
2019-02-18T11:59:52.707Z,14.83
2019-02-18T12:02:23.240Z,14.50
2019-02-18T12:04:54.637Z,15.17
2019-02-18T12:07:26.999Z,15.20
2019-02-18T12:09:58.636Z,14.13
2019-02-18T12:12:31.145Z,14.97
2019-02-18T12:15:19.478Z,15.60
2019-02-18T12:17:57.678Z,14.10
2019-02-18T12:20:27.945Z,14.90
2019-02-18T12:22:58.129Z,14.20
2019-02-18T12:25:28.329Z,15.57
2019-02-18T12:27:58.500Z,15.30
2019-02-18T12:30:28.858Z,14.53
2019-02-18T12:32:59.218Z,14.80
2019-02-18T12:35:31.542Z,14.43
2019-02-18T12:38:02.614Z,14.20
2019-02-18T12:40:34.488Z,15.07
2019-02-18T12:43:04.753Z,14.73
2019-02-18T12:45:35.007Z,13.87
2019-02-18T12:48:05.242Z,14.07
2019-02-18T12:50:35.860Z,14.53
2019-02-18T12:53:08.866Z,14.33
2019-02-18T12:55:40.979Z,14.23
2019-02-18T12:58:11.157Z,13.97
2019-02-18T13:00:41.353Z,13.53
2019-02-18T13:03:11.819Z,13.63
2019-02-18T13:05:42.378Z,14.63
2019-02-18T13:08:12.603Z,14.18
2019-02-18T13:10:42.971Z,14.63
2019-02-18T13:13:13.501Z,13.62
2019-02-18T13:15:43.817Z,14.60
2019-02-18T13:18:14.014Z,14.40
2019-02-18T13:20:44.296Z,13.77
2019-02-18T13:23:15.956Z,13.60
2019-02-18T13:25:47.610Z,13.03
2019-02-18T13:28:18.278Z,13.47
2019-02-18T13:30:48.641Z,13.73
2019-02-18T13:33:18.902Z,13.93
2019-02-18T13:35:49.244Z,14.00
2019-02-18T13:38:19.613Z,14.43
2019-02-18T13:40:49.912Z,14.27
2019-02-18T13:43:20.171Z,13.83
2019-02-18T13:45:50.451Z,14.45
2019-02-18T13:48:20.833Z,13.83
2019-02-18T13:50:51.189Z,14.67
2019-02-18T13:53:21.362Z,14.27
2019-02-18T13:55:51.518Z,13.97
2019-02-18T13:58:21.717Z,13.55
2019-02-18T14:00:51.909Z,13.37
2019-02-18T14:03:22.269Z,13.85
2019-02-18T14:05:52.535Z,13.13
2019-02-18T14:08:22.757Z,13.70
2019-02-18T14:10:53.208Z,13.30
2019-02-18T14:13:23.485Z,13.62
2019-02-18T14:15:53.706Z,14.07
2019-02-18T14:18:24.287Z,13.10
2019-02-18T14:20:54.774Z,14.23
2019-02-18T14:23:25.001Z,13.63
2019-02-18T14:25:57.032Z,13.27
2019-02-18T14:28:27.304Z,13.30
2019-02-18T14:30:57.804Z,13.73
2019-02-18T14:33:28.046Z,13.43
2019-02-18T14:36:00.085Z,13.57
2019-02-18T14:38:30.319Z,13.47
2019-02-18T14:41:00.666Z,14.93
2019-02-18T14:43:30.940Z,13.87
2019-02-18T14:46:01.284Z,13.50
2019-02-18T14:48:31.609Z,14.23
2019-02-18T14:51:02.091Z,13.97
2019-02-18T14:53:32.464Z,15.00
2019-02-18T14:56:04.729Z,13.10
2019-02-18T14:58:35.912Z,14.13
2019-02-18T15:01:09.092Z,13.97
2019-02-18T15:03:39.321Z,13.30
2019-02-18T15:06:09.928Z,14.37
2019-02-18T15:08:41.862Z,15.03
2019-02-18T15:11:27.398Z,14.60
2019-02-18T15:14:01.945Z,13.87
2019-02-18T15:16:55.962Z,13.47
2019-02-18T15:19:28.745Z,13.50
2019-02-18T15:21:59.108Z,13.87
2019-02-18T15:24:29.751Z,14.90
2019-02-18T15:27:02.914Z,14.37
2019-02-18T15:29:36.632Z,14.10
2019-02-18T15:32:06.899Z,14.20
2019-02-18T15:34:37.151Z,15.27
2019-02-18T15:37:07.444Z,14.60
2019-02-18T15:39:37.737Z,14.43
2019-02-18T15:42:08.370Z,15.43
2019-02-18T15:44:38.658Z,14.70
2019-02-18T15:47:12.147Z,14.50
2019-02-18T15:49:50.281Z,14.77
2019-02-18T15:52:20.532Z,16.37
2019-02-18T15:54:51.350Z,15.97
2019-02-18T15:57:21.788Z,14.83
2019-02-18T15:59:52.244Z,15.33
2019-02-18T16:02:26.894Z,16.87
2019-02-18T16:04:59.434Z,16.47
2019-02-18T16:07:36.069Z,15.60
2019-02-18T16:10:07.624Z,16.70
2019-02-18T16:12:38.040Z,17.60
2019-02-18T16:15:08.897Z,16.85
2019-02-18T16:17:39.225Z,17.03
2019-02-18T16:20:11.042Z,17.43
2019-02-18T16:22:41.490Z,18.57
2019-02-18T16:25:15.727Z,17.87
2019-02-18T16:27:46.319Z,17.43
2019-02-18T16:30:20.091Z,17.65
2019-02-18T16:33:01.751Z,18.00
2019-02-18T16:35:36.059Z,18.47
2019-02-18T16:38:07.773Z,19.60
2019-02-18T16:40:38.739Z,19.40
2019-02-18T16:43:09.629Z,19.83
2019-02-18T16:45:40.207Z,21.30
2019-02-18T16:48:11.145Z,22.20
2019-02-18T16:50:41.694Z,22.40
2019-02-18T16:53:12.415Z,22.87
2019-02-18T16:55:43.182Z,22.50
2019-02-18T17:01:00.682Z,22.70
2019-02-18T17:03:30.959Z,21.90
2019-02-18T17:06:01.226Z,23.73
2019-02-18T17:08:31.403Z,25.77
2019-02-18T17:11:01.657Z,24.17
2019-02-18T17:13:31.987Z,25.37
2019-02-18T17:16:02.251Z,24.80
2019-02-18T17:18:32.921Z,25.00
2019-02-18T17:21:03.172Z,24.83
2019-02-18T17:23:33.457Z,24.43
2019-02-18T17:26:03.833Z,25.20
2019-02-18T17:28:35.666Z,24.53
2019-02-18T17:31:06.866Z,24.60
2019-02-18T17:33:37.027Z,23.97
2019-02-18T17:36:07.492Z,25.40
2019-02-18T17:38:37.733Z,25.72
2019-02-18T17:41:09.095Z,23.80
2019-02-18T17:43:39.261Z,24.90
2019-02-18T17:46:09.852Z,25.97
2019-02-18T17:48:40.018Z,27.53
2019-02-18T17:51:10.255Z,26.53
2019-02-18T17:53:40.582Z,25.13
2019-02-18T17:56:10.767Z,26.15
2019-02-18T17:58:41.193Z,28.00
2019-02-18T18:01:11.624Z,28.38
2019-02-18T18:03:41.856Z,28.37
2019-02-18T18:06:12.072Z,28.00
2019-02-18T18:08:42.329Z,27.57
2019-02-18T18:11:12.695Z,28.40
2019-02-18T18:13:43.539Z,29.05
2019-02-18T18:16:16.247Z,28.73
2019-02-18T18:18:46.763Z,29.27
2019-02-18T18:21:17.396Z,30.13
2019-02-18T18:23:50.726Z,29.43
2019-02-18T18:26:21.948Z,31.17
2019-02-18T18:28:52.909Z,31.10
2019-02-18T18:31:23.623Z,30.83
2019-02-18T18:33:54.245Z,30.70
2019-02-18T18:36:24.744Z,29.90
2019-02-18T18:38:57.202Z,29.10
2019-02-18T18:41:30.168Z,29.97
2019-02-18T18:44:02.724Z,30.63
2019-02-18T18:46:39.302Z,32.80
2019-02-18T18:49:09.912Z,33.50
2019-02-18T18:51:40.676Z,33.40
2019-02-18T18:54:11.006Z,33.20
2019-02-18T18:56:41.835Z,33.40
2019-02-18T18:59:12.548Z,33.38
2019-02-18T19:01:43.372Z,34.57
2019-02-18T19:04:14.260Z,30.50
2019-02-18T19:06:47.217Z,32.77
2019-02-18T19:09:17.889Z,31.53
2019-02-18T19:11:48.529Z,32.73
2019-02-18T19:14:19.336Z,29.93
2019-02-18T19:16:50.133Z,29.67
2019-02-18T19:19:20.731Z,29.45
2019-02-18T19:21:51.210Z,27.70
2019-02-18T19:24:21.940Z,29.30
2019-02-18T19:26:52.580Z,30.30
2019-02-18T19:29:23.427Z,31.37
2019-02-18T19:31:54.101Z,31.00
2019-02-18T19:34:25.062Z,29.40
2019-02-18T19:36:55.696Z,28.93
2019-02-18T19:39:26.334Z,29.00
2019-02-18T19:41:57.176Z,30.50
2019-02-18T19:44:28.110Z,28.37
2019-02-18T19:46:58.857Z,29.13
2019-02-18T19:49:29.441Z,29.60
2019-02-18T19:52:00.283Z,28.60
2019-02-18T19:54:31.042Z,30.60
2019-02-18T19:57:01.768Z,30.23
2019-02-18T19:59:32.168Z,31.50
2019-02-18T20:02:02.849Z,31.97
2019-02-18T20:04:34.782Z,33.10
2019-02-18T20:07:05.347Z,32.13
2019-02-18T20:09:35.969Z,31.47
2019-02-18T20:12:07.758Z,31.93
2019-02-18T20:14:38.516Z,32.60
2019-02-18T20:17:09.106Z,32.97
2019-02-18T20:19:39.579Z,33.00
2019-02-18T20:22:10.339Z,33.33
2019-02-18T20:24:40.864Z,34.63
2019-02-18T20:27:11.363Z,36.03
2019-02-18T20:32:27.445Z,35.27
2019-02-18T20:34:58.086Z,33.53
2019-02-18T20:37:28.841Z,35.47
2019-02-18T20:39:59.484Z,35.57
2019-02-18T20:42:31.591Z,34.57
2019-02-18T20:45:02.824Z,34.13
2019-02-18T20:47:33.880Z,34.33
2019-02-18T20:50:04.410Z,31.60
2019-02-18T20:52:35.010Z,34.40
2019-02-18T20:55:05.868Z,36.00
2019-02-18T20:57:36.779Z,35.50
2019-02-18T21:00:12.751Z,37.03
2019-02-18T21:02:43.289Z,38.57
2019-02-18T21:05:13.824Z,37.93
2019-02-18T21:07:54.889Z,35.70
2019-02-18T21:12:45.701Z,37.10
2019-02-18T21:15:16.267Z,39.37
2019-02-18T21:17:46.985Z,39.23
2019-02-18T21:20:17.561Z,38.57
2019-02-18T21:22:48.543Z,36.50
2019-02-18T21:25:19.166Z,36.93
2019-02-18T21:27:49.724Z,39.20
2019-02-18T21:30:20.320Z,37.53
2019-02-18T21:32:54.081Z,37.97
2019-02-18T21:35:24.866Z,39.95
2019-02-18T21:37:55.443Z,39.63
2019-02-18T21:40:28.900Z,40.73
2019-02-18T21:42:59.413Z,41.50
2019-02-18T21:45:30.045Z,40.37
2019-02-18T21:48:00.791Z,40.10
2019-02-18T21:50:31.331Z,40.97
2019-02-18T21:53:01.997Z,41.50
2019-02-18T21:55:32.643Z,40.73
2019-02-18T21:58:03.209Z,37.70
2019-02-18T22:00:33.824Z,38.60
2019-02-18T22:03:04.503Z,37.67
2019-02-18T22:05:35.045Z,34.33
2019-02-18T22:08:06.113Z,36.27
2019-02-18T22:10:36.708Z,32.43
2019-02-18T22:13:07.582Z,37.08
2019-02-18T22:15:38.436Z,37.33
2019-02-18T22:18:10.581Z,37.30
2019-02-18T22:20:43.694Z,35.47
2019-02-18T22:23:14.389Z,33.83
2019-02-18T22:25:45.974Z,35.13
2019-02-18T22:28:16.485Z,36.42
2019-02-18T22:30:47.149Z,35.33
2019-02-18T22:33:17.789Z,34.18
2019-02-18T22:35:48.299Z,33.97
2019-02-18T22:38:18.872Z,36.67
2019-02-18T22:40:49.353Z,35.93
2019-02-18T22:43:20.288Z,37.80
2019-02-18T22:45:50.720Z,35.50
2019-02-18T22:48:20.891Z,36.90
2019-02-18T22:50:51.126Z,37.50
2019-02-18T22:53:21.312Z,38.05
2019-02-18T22:55:51.492Z,38.30
2019-02-18T22:58:21.978Z,38.67
2019-02-18T23:01:00.567Z,38.60
2019-02-18T23:03:30.964Z,40.70
2019-02-18T23:06:01.340Z,39.37
2019-02-18T23:08:31.613Z,40.47
2019-02-18T23:11:02.155Z,41.13
2019-02-18T23:13:32.317Z,40.80
2019-02-18T23:16:02.617Z,39.80
2019-02-18T23:18:32.827Z,42.85
2019-02-18T23:21:03.193Z,41.77
2019-02-18T23:23:33.465Z,41.73
2019-02-18T23:26:04.065Z,39.60
2019-02-18T23:28:34.344Z,41.83
2019-02-18T23:31:04.607Z,41.13
2019-02-18T23:33:38.025Z,41.60
2019-02-18T23:36:08.198Z,41.23
2019-02-18T23:38:38.267Z,42.20
2019-02-18T23:41:08.508Z,42.43
2019-02-18T23:43:38.787Z,39.43
2019-02-18T23:46:09.078Z,39.03
2019-02-18T23:48:39.315Z,39.43
2019-02-18T23:51:09.477Z,39.53
2019-02-18T23:53:39.662Z,38.83
2019-02-18T23:56:09.959Z,37.53
2019-02-18T23:58:40.179Z,39.03
